Time;durP1;ratioP1;P1;durP2;ratioP2;P2;SDS_P1;SDS_P2;PMS_P1;PMS_P2;Temp;Humidity;BMP_temperature;BMP_pressure;BME280_temperature;BME280_humidity;BME280_pressure;Samples;Min_cycle;Max_cycle;Signal;HPM_P1;HPM_P2
2021/12/25 00:00:13;;;;;;;15.02;6.47;;;;;;;-12.23;67.85;97404.66;4884363;29;20039;-70
2021/12/25 00:02:38;;;;;;;13.77;8.95;;;;;;;-12.18;67.42;97395.16;4882167;29;20139;-69
2021/12/25 00:05:04;;;;;;;12.52;5.53;;;;;;;-12.30;67.67;97392.81;4884262;29;20058;-69
2021/12/25 00:07:29;;;;;;;18.83;8.52;;;;;;;-12.14;67.70;97381.38;4884702;29;20048;-72
2021/12/25 00:09:55;;;;;;;8.25;4.82;;;;;;;-12.08;68.16;97390.72;4884979;29;20040;-72
2021/12/25 00:12:20;;;;;;;23.75;8.95;;;;;;;-12.35;67.99;97362.09;4883097;29;20070;-72
2021/12/25 00:14:47;;;;;;;8.15;4.28;;;;;;;-12.35;68.20;97354.38;4867889;29;20075;-71
2021/12/25 00:17:11;;;;;;;7.13;4.25;;;;;;;-12.32;68.69;97345.78;4883239;29;20056;-69
2021/12/25 00:19:39;;;;;;;24.48;8.32;;;;;;;-12.18;68.84;97331.81;4866732;29;20145;-69
2021/12/25 00:22:04;;;;;;;16.95;7.72;;;;;;;-12.05;68.34;97324.72;4883962;29;20051;-68
2021/12/25 00:24:29;;;;;;;13.52;5.97;;;;;;;-12.11;68.41;97330.00;4851373;29;20056;-70
2021/12/25 00:27:22;;;;;;;6.85;5.72;;;;;;;-12.14;68.94;97312.91;4884037;29;20048;-71
2021/12/25 00:34:55;;;;;;;14.93;7.80;;;;;;;-12.04;68.23;97287.03;4883844;29;20166;-68
2021/12/25 00:37:21;;;;;;;16.83;8.60;;;;;;;-12.16;69.47;97283.00;4848988;29;20048;-72
2021/12/25 00:39:45;;;;;;;16.13;7.82;;;;;;;-12.18;68.81;97277.88;4851506;29;20051;-73
2021/12/25 00:42:12;;;;;;;20.50;9.05;;;;;;;-12.27;69.84;97269.53;4866795;29;20125;-71
2021/12/25 00:44:37;;;;;;;20.55;9.50;;;;;;;-12.16;70.13;97263.31;4866709;29;20079;-69
2021/12/25 00:47:04;;;;;;;14.07;5.55;;;;;;;-12.04;69.67;97251.09;4851292;29;20132;-70
2021/12/25 00:49:31;;;;;;;28.92;10.43;;;;;;;-11.83;68.90;97238.63;4867026;29;20055;-68
2021/12/25 00:51:56;;;;;;;16.52;7.68;;;;;;;-11.85;68.71;97242.94;4883691;29;20068;-67
2021/12/25 00:54:24;;;;;;;17.30;9.60;;;;;;;-11.89;68.48;97241.34;4866602;29;20052;-70
2021/12/25 00:56:49;;;;;;;19.92;9.02;;;;;;;-12.00;68.72;97247.59;4866748;29;20455;-66
2021/12/25 00:59:14;;;;;;;13.27;6.95;;;;;;;-11.89;68.86;97237.94;4863882;29;20466;-66
2021/12/25 01:01:39;;;;;;;9.95;5.53;;;;;;;-11.78;68.43;97233.41;4863845;29;20503;-66
2021/12/25 01:04:05;;;;;;;10.52;4.75;;;;;;;-11.83;68.56;97235.22;4864958;29;20058;-71
2021/12/25 01:06:33;;;;;;;16.20;7.75;;;;;;;-11.99;68.72;97221.88;4880777;29;20075;-68
2021/12/25 01:08:58;;;;;;;12.82;6.13;;;;;;;-12.06;69.28;97215.16;4880541;29;20044;-68
2021/12/25 01:11:26;;;;;;;15.40;7.45;;;;;;;-11.86;68.85;97222.47;4833590;29;20123;-68
2021/12/25 01:13:58;;;;;;;11.43;5.47;;;;;;;-11.86;68.59;97197.63;4864705;29;20070;-67
2021/12/25 01:22:43;;;;;;;13.32;5.82;;;;;;;-11.80;68.90;97176.91;4864544;29;20099;-68
2021/12/25 01:49:54;;;;;;;6.03;3.30;;;;;;;-11.83;69.04;97135.88;4770613;29;20081;-69
2021/12/25 01:52:25;;;;;;;12.50;4.65;;;;;;;-11.69;69.28;97125.25;4778085;29;20118;-67
2021/12/25 01:54:49;;;;;;;14.52;8.25;;;;;;;-11.74;69.26;97111.69;4786286;29;20053;-66
2021/12/25 01:57:14;;;;;;;18.67;8.68;;;;;;;-11.76;69.27;97109.19;4785414;29;20054;-65
2021/12/25 01:59:39;;;;;;;13.52;6.32;;;;;;;-11.70;69.07;97115.84;4784978;29;20046;-64
2021/12/25 02:02:05;;;;;;;10.35;5.18;;;;;;;-11.56;69.05;97100.09;4754689;29;20054;-63
2021/12/25 02:04:30;;;;;;;19.70;8.68;;;;;;;-11.56;69.18;97088.09;4793187;29;20053;-66
2021/12/25 02:06:55;;;;;;;14.13;8.48;;;;;;;-11.65;69.14;97088.31;4806106;29;20104;-64
2021/12/25 02:09:20;;;;;;;18.83;8.38;;;;;;;-11.62;68.95;97077.13;4821430;29;20049;-65
2021/12/25 02:11:45;;;;;;;8.98;5.38;;;;;;;-11.68;69.75;97075.53;4806146;29;20144;-65
2021/12/25 02:14:11;;;;;;;19.35;8.98;;;;;;;-11.61;69.57;97077.06;4790990;29;20133;-64
2021/12/25 02:16:50;;;;;;;16.45;8.80;;;;;;;-11.59;69.76;97074.47;4855522;29;20204;-64
2021/12/25 02:19:33;;;;;;;17.80;9.57;;;;;;;-11.51;69.26;97085.41;4862302;29;20048;-65
2021/12/25 02:22:03;;;;;;;16.52;9.75;;;;;;;-11.27;69.01;97065.91;4845549;29;20055;-63
2021/12/25 02:24:28;;;;;;;12.15;5.88;;;;;;;-11.42;69.30;97062.88;4862370;29;20063;-66
2021/12/25 02:26:55;;;;;;;18.17;8.02;;;;;;;-11.36;69.44;97051.56;4880434;29;20048;-69
2021/12/25 02:29:22;;;;;;;11.73;7.28;;;;;;;-11.25;69.13;97023.84;4860286;29;20042;-68
2021/12/25 02:31:47;;;;;;;24.50;9.60;;;;;;;-11.47;69.47;97021.00;4878990;29;20220;-66
2021/12/25 02:34:14;;;;;;;11.30;5.47;;;;;;;-11.25;69.46;97017.84;4862465;29;20044;-67
2021/12/25 02:36:39;;;;;;;6.80;4.68;;;;;;;-11.23;69.46;97006.66;4860593;29;20056;-70
2021/12/25 02:39:04;;;;;;;16.50;8.50;;;;;;;-11.20;69.17;97014.28;4863087;29;20411;-64
2021/12/25 02:41:30;;;;;;;11.27;6.38;;;;;;;-11.30;68.92;97017.16;4846921;29;20118;-65
2021/12/25 02:43:55;;;;;;;17.73;9.27;;;;;;;-11.15;69.40;97011.56;4846294;29;20048;-66
2021/12/25 02:46:48;;;;;;;19.98;9.15;;;;;;;-11.28;69.44;96997.38;4857074;29;20052;-66
2021/12/25 02:49:13;;;;;;;19.02;8.20;;;;;;;-11.21;69.63;97009.19;4862911;29;20076;-66
2021/12/25 02:51:42;;;;;;;9.35;4.88;;;;;;;-11.29;69.45;97004.28;4863236;29;20134;-66
2021/12/25 02:54:07;;;;;;;19.65;10.27;;;;;;;-11.31;69.57;96990.59;4878961;29;20175;-65
2021/12/25 02:56:32;;;;;;;13.75;5.78;;;;;;;-11.20;69.81;96992.88;4863297;29;20127;-66
2021/12/25 02:58:57;;;;;;;11.00;5.80;;;;;;;-11.27;70.02;96991.34;4862575;29;20044;-65
2021/12/25 03:01:23;;;;;;;13.75;8.15;;;;;;;-11.08;69.70;96984.81;4862544;29;20067;-65
2021/12/25 03:03:48;;;;;;;9.50;5.63;;;;;;;-11.16;69.93;96981.59;4862009;29;20107;-64
2021/12/25 03:06:12;;;;;;;12.77;7.53;;;;;;;-11.17;69.47;96985.09;4861664;29;20126;-64
2021/12/25 03:08:39;;;;;;;16.48;9.27;;;;;;;-11.24;69.88;96979.25;4846382;29;20079;-65
2021/12/25 03:11:06;;;;;;;4.63;3.05;;;;;;;-11.07;70.23;96991.66;4861860;29;20048;-64
2021/12/25 03:13:45;;;;;;;18.92;9.45;;;;;;;-11.07;69.73;96968.50;4876050;29;20047;-67
2021/12/25 03:16:14;;;;;;;16.52;9.00;;;;;;;-10.94;69.72;96974.94;4844578;29;20138;-65
2021/12/25 03:18:46;;;;;;;26.13;11.82;;;;;;;-11.14;69.57;96964.41;4861946;29;20505;-64
2021/12/25 03:21:12;;;;;;;9.85;5.53;;;;;;;-11.16;69.93;96961.03;4861091;29;20114;-63
2021/12/25 03:23:38;;;;;;;19.45;9.45;;;;;;;-11.17;70.50;96955.03;4861245;29;20123;-64
2021/12/25 03:26:04;;;;;;;14.48;7.00;;;;;;;-11.15;70.60;96953.28;4861216;29;20052;-65
2021/12/25 03:28:33;;;;;;;14.63;8.55;;;;;;;-11.15;70.40;96960.97;4879386;29;20040;-66
2021/12/25 03:31:01;;;;;;;12.18;6.88;;;;;;;-11.07;70.24;96953.06;4878909;29;20139;-66
2021/12/25 03:33:26;;;;;;;8.43;5.55;;;;;;;-11.01;70.64;96934.88;4862576;29;20666;-65
2021/12/25 03:35:51;;;;;;;13.82;6.80;;;;;;;-11.02;70.44;96933.19;4862360;29;20044;-64
2021/12/25 03:38:20;;;;;;;9.13;5.13;;;;;;;-10.92;69.99;96929.44;4862342;29;20051;-66
2021/12/25 03:40:48;;;;;;;22.25;9.80;;;;;;;-10.86;70.20;96923.28;4879183;29;20051;-63
2021/12/25 03:43:13;;;;;;;3.80;3.28;;;;;;;-10.84;70.18;96922.34;4862247;29;20051;-64
2021/12/25 03:45:39;;;;;;;21.98;10.38;;;;;;;-10.86;69.98;96931.00;4878868;29;20048;-64
2021/12/25 03:48:14;;;;;;;18.10;9.52;;;;;;;-11.03;70.60;96919.47;4855506;29;20059;-63
2021/12/25 03:58:44;;;;;;;13.95;7.10;;;;;;;-10.72;71.01;96891.06;4860951;29;20048;-63
2021/12/25 04:06:30;;;;;;;8.57;4.93;;;;;;;-10.58;70.07;96889.78;4847008;29;20138;-65
2021/12/25 04:08:56;;;;;;;19.13;9.00;;;;;;;-10.72;69.75;96885.91;4862291;29;20089;-65
2021/12/25 04:11:30;;;;;;;18.05;6.57;;;;;;;-10.82;70.23;96875.97;4862561;29;20527;-65
2021/12/25 04:13:56;;;;;;;16.38;6.18;;;;;;;-10.83;70.71;96877.69;4862596;29;20159;-64
2021/12/25 04:16:23;;;;;;;6.07;3.40;;;;;;;-10.77;70.49;96864.66;4862554;29;20110;-64
2021/12/25 04:18:48;;;;;;;5.22;3.42;;;;;;;-10.65;71.01;96871.97;4862664;29;20047;-64
2021/12/25 04:21:13;;;;;;;28.30;9.30;;;;;;;-10.76;70.63;96860.34;4878148;29;20052;-65
2021/12/25 04:23:40;;;;;;;12.40;6.03;;;;;;;-10.67;70.72;96855.75;4879433;29;20104;-63
2021/12/25 04:26:05;;;;;;;15.50;5.38;;;;;;;-10.70;70.53;96855.84;4862458;29;20629;-64
2021/12/25 04:28:43;;;;;;;21.77;9.88;;;;;;;-10.62;70.17;96842.75;4862588;29;20486;-64
2021/12/25 04:31:27;;;;;;;23.75;9.90;;;;;;;-10.64;70.07;96841.94;4847127;29;20052;-64
2021/12/25 11:25:25;;;;;;;13.63;6.38;;;;;;;-7.47;69.99;96869.16;5162339;23;20606;-64
2021/12/25 11:27:51;;;;;;;10.35;5.70;;;;;;;-7.47;70.47;96876.91;4844090;29;20135;-66
2021/12/25 11:30:18;;;;;;;10.48;5.45;;;;;;;-7.44;70.52;96881.94;4860735;29;20053;-66
2021/12/25 11:32:42;;;;;;;9.98;5.70;;;;;;;-7.45;70.09;96875.13;4861456;29;20147;-67
2021/12/25 11:35:09;;;;;;;7.82;4.63;;;;;;;-7.23;71.01;96882.75;4861060;29;20131;-67
2021/12/25 11:37:35;;;;;;;10.30;5.20;;;;;;;-7.16;70.52;96884.16;4828933;29;20053;-67
2021/12/25 11:40:01;;;;;;;10.43;5.05;;;;;;;-7.32;70.64;96887.41;4861077;29;20048;-69
2021/12/25 11:42:28;;;;;;;10.00;4.95;;;;;;;-7.24;71.53;96901.78;4859166;29;20048;-65
2021/12/25 11:44:56;;;;;;;9.38;5.05;;;;;;;-7.33;71.75;96901.25;4844052;29;20056;-65
2021/12/25 11:47:37;;;;;;;9.23;5.70;;;;;;;-7.33;72.03;96910.78;4860590;29;20056;-66
2021/12/25 11:50:07;;;;;;;15.40;6.88;;;;;;;-7.52;70.78;96918.50;4860587;29;20109;-65
2021/12/25 11:52:39;;;;;;;9.30;4.97;;;;;;;-7.39;71.95;96921.41;4861210;29;20056;-64
2021/12/25 11:58:39;;;;;;;11.18;5.35;;;;;;;-7.38;73.17;96947.22;4803416;29;20141;-65
2021/12/25 12:01:30;;;;;;;12.25;6.93;;;;;;;-7.42;72.60;96947.41;4804503;29;20465;-63
2021/12/25 12:04:11;;;;;;;10.48;5.88;;;;;;;-7.42;72.96;96957.75;4804229;29;20050;-65
2021/12/25 12:06:46;;;;;;;10.05;4.50;;;;;;;-7.38;72.69;96959.31;4810678;29;20083;-65
2021/12/25 12:09:22;;;;;;;9.45;4.82;;;;;;;-7.42;72.70;96965.50;4804393;29;20113;-65
2021/12/25 12:12:04;;;;;;;7.93;4.85;;;;;;;-7.50;72.81;96978.78;4788576;29;20050;-68
2021/12/25 12:15:19;;;;;;;7.97;4.53;;;;;;;-7.51;73.25;96984.03;4749609;30;20539;-64
2021/12/25 12:18:23;;;;;;;9.13;4.93;;;;;;;-7.71;72.70;96987.44;4731442;30;20209;-67
2021/12/25 12:20:50;;;;;;;8.98;5.88;;;;;;;-7.94;72.73;96984.97;4731502;30;20089;-64
2021/12/25 12:26:57;;;;;;;8.30;3.72;;;;;;;-8.04;72.16;96996.59;4710629;30;20133;-65
2021/12/25 12:29:42;;;;;;;7.88;4.40;;;;;;;-8.00;72.30;97014.47;4695511;30;20099;-68
2021/12/25 12:32:31;;;;;;;7.93;3.53;;;;;;;-8.14;71.13;97004.72;4714283;30;20056;-67
2021/12/25 12:34:56;;;;;;;5.00;3.88;;;;;;;-8.18;71.05;97028.13;4721168;30;20060;-66
2021/12/25 12:37:26;;;;;;;6.85;3.75;;;;;;;-8.09;71.37;97033.78;4716874;30;20066;-65
2021/12/25 12:40:03;;;;;;;4.75;3.13;;;;;;;-8.09;70.79;97036.38;4731500;30;20107;-68
2021/12/25 12:42:40;;;;;;;4.95;2.72;;;;;;;-8.12;70.69;97030.47;4731909;30;20142;-66
2021/12/25 12:45:11;;;;;;;4.05;2.67;;;;;;;-8.15;70.79;97048.69;4731679;30;20480;-67
2021/12/25 12:47:36;;;;;;;3.25;2.95;;;;;;;-8.19;70.94;97049.72;4732462;30;20217;-70
2021/12/25 12:50:03;;;;;;;3.58;2.33;;;;;;;-8.08;70.35;97055.31;4762306;29;20059;-64
2021/12/25 12:52:38;;;;;;;3.30;2.40;;;;;;;-8.15;70.55;97053.88;4837965;29;20063;-68
2021/12/25 12:55:25;;;;;;;5.13;2.40;;;;;;;-8.15;69.78;97070.22;4826956;29;20048;-66
2021/12/25 12:58:16;;;;;;;3.45;2.25;;;;;;;-8.12;69.63;97082.16;4845299;29;20049;-66
2021/12/25 13:00:45;;;;;;;5.88;3.00;;;;;;;-8.28;68.04;97088.81;4845407;29;20048;-65
2021/12/25 13:03:09;;;;;;;4.35;2.47;;;;;;;-8.34;69.00;97097.66;4851625;29;20499;-67
2021/12/25 13:05:39;;;;;;;3.63;2.35;;;;;;;-8.28;69.00;97100.00;4863879;29;20503;-67
2021/12/25 13:08:21;;;;;;;3.97;2.05;;;;;;;-8.23;69.34;97112.72;4863616;29;20052;-66
2021/12/25 13:10:51;;;;;;;3.20;2.22;;;;;;;-8.17;68.66;97133.19;4846994;29;20052;-74
2021/12/25 13:13:19;;;;;;;3.95;2.60;;;;;;;-8.50;69.57;97130.16;4863582;29;20048;-67
2021/12/25 13:15:50;;;;;;;5.10;2.35;;;;;;;-8.29;68.47;97133.66;4863569;29;20052;-67
2021/12/25 13:18:16;;;;;;;2.75;1.92;;;;;;;-8.23;68.23;97134.25;4846910;29;20045;-66
2021/12/25 13:20:49;;;;;;;2.35;1.70;;;;;;;-8.22;68.91;97145.44;4847069;29;20048;-67
2021/12/25 13:23:48;;;;;;;7.15;2.95;;;;;;;-8.21;67.81;97142.78;4863127;29;20058;-66
2021/12/25 13:26:15;;;;;;;2.92;1.88;;;;;;;-8.17;67.61;97153.88;4844677;29;20080;-67
2021/12/25 13:28:41;;;;;;;3.72;2.22;;;;;;;-7.99;68.67;97168.69;4843395;29;20045;-67
2021/12/25 13:31:13;;;;;;;2.33;1.77;;;;;;;-8.06;67.32;97164.66;4844382;29;20052;-66
2021/12/25 13:33:54;;;;;;;9.45;2.05;;;;;;;-8.00;66.68;97172.16;4828054;29;20070;-68
2021/12/25 13:36:31;;;;;;;3.63;2.70;;;;;;;-7.93;66.93;97183.13;4844385;29;20104;-66
2021/12/25 13:39:06;;;;;;;5.68;2.55;;;;;;;-8.15;65.43;97196.00;4844397;29;20064;-67
2021/12/25 13:41:37;;;;;;;3.03;1.80;;;;;;;-8.27;65.93;97202.47;4843558;29;20052;-66
2021/12/25 13:44:10;;;;;;;3.00;1.70;;;;;;;-8.31;65.27;97203.47;4842973;29;20053;-66
2021/12/25 13:46:50;;;;;;;2.17;1.63;;;;;;;-8.11;66.33;97218.25;4843061;29;20508;-66
2021/12/25 13:49:30;;;;;;;2.45;1.63;;;;;;;-8.28;65.33;97207.69;4844386;29;20495;-66
2021/12/25 13:51:57;;;;;;;2.63;1.70;;;;;;;-8.45;64.79;97210.88;4844217;29;20483;-66
2021/12/25 13:54:22;;;;;;;3.30;1.92;;;;;;;-8.50;65.19;97223.13;4843055;29;20515;-65
2021/12/25 13:56:49;;;;;;;2.72;2.25;;;;;;;-8.54;64.70;97216.38;4844102;29;20088;-66
2021/12/25 13:59:16;;;;;;;3.63;2.05;;;;;;;-8.43;65.10;97230.59;4844114;29;20095;-65
2021/12/25 14:01:42;;;;;;;4.25;1.98;;;;;;;-8.68;64.81;97226.31;4844394;29;20104;-66
2021/12/25 14:04:13;;;;;;;4.30;2.53;;;;;;;-9.03;64.83;97240.44;4846732;29;20045;-66
2021/12/25 14:06:38;;;;;;;1.45;1.25;;;;;;;-8.98;66.07;97241.97;4844311;29;20669;-66
2021/12/25 14:09:05;;;;;;;3.30;2.25;;;;;;;-9.07;66.88;97255.16;4828668;29;20624;-67
2021/12/25 14:11:30;;;;;;;8.98;3.13;;;;;;;-9.05;66.67;97261.13;4844421;29;20507;-66
2021/12/25 14:13:56;;;;;;;4.72;2.42;;;;;;;-9.18;66.37;97255.50;4843828;29;20043;-66
2021/12/25 14:16:22;;;;;;;2.60;1.95;;;;;;;-9.23;66.05;97259.94;4842723;29;20583;-66
2021/12/25 14:18:48;;;;;;;3.65;2.08;;;;;;;-9.25;66.54;97273.78;4811948;29;20056;-67
2021/12/25 14:21:40;;;;;;;3.97;2.13;;;;;;;-9.21;66.49;97276.22;4844191;29;20444;-66
2021/12/25 14:24:13;;;;;;;2.08;1.38;;;;;;;-9.28;66.38;97286.81;4845702;29;20064;-66
2021/12/25 14:26:38;;;;;;;4.93;2.63;;;;;;;-9.26;66.46;97288.44;4862576;29;20044;-67
2021/12/25 14:29:28;;;;;;;3.92;2.05;;;;;;;-9.24;66.12;97296.97;4862902;29;20047;-67
2021/12/25 14:31:53;;;;;;;5.85;2.90;;;;;;;-9.15;66.23;97297.59;4862439;29;20082;-67
2021/12/25 14:34:18;;;;;;;3.83;2.35;;;;;;;-9.33;65.51;97292.09;4862633;29;20044;-67
2021/12/25 14:36:45;;;;;;;3.15;1.92;;;;;;;-9.24;65.22;97302.13;4862813;29;20052;-66
2021/12/25 14:39:17;;;;;;;5.40;2.05;;;;;;;-9.22;64.88;97309.81;4868503;29;20049;-66
2021/12/25 14:41:42;;;;;;;2.33;1.90;;;;;;;-9.28;65.74;97317.75;4862119;29;20044;-68
2021/12/25 14:44:22;;;;;;;3.35;2.35;;;;;;;-9.40;65.84;97318.97;4845989;29;20052;-66
2021/12/25 14:47:04;;;;;;;4.47;1.92;;;;;;;-9.36;65.92;97328.28;4862961;29;20563;-69
2021/12/25 14:49:42;;;;;;;4.28;2.17;;;;;;;-9.37;65.90;97336.09;4864730;29;20047;-67
2021/12/25 14:52:07;;;;;;;4.35;2.38;;;;;;;-9.38;65.80;97332.66;4862780;29;20128;-68
2021/12/25 14:54:33;;;;;;;4.95;2.65;;;;;;;-9.79;66.27;97341.56;4862347;29;20139;-69
2021/12/25 14:57:00;;;;;;;3.03;2.05;;;;;;;-9.72;67.07;97348.25;4845701;29;20095;-69
2021/12/25 14:59:26;;;;;;;5.95;2.60;;;;;;;-9.64;67.07;97354.03;4861733;29;20506;-67
2021/12/25 15:01:56;;;;;;;3.05;2.58;;;;;;;-9.82;66.68;97339.09;4861588;29;20115;-67
2021/12/25 15:04:25;;;;;;;4.20;2.10;;;;;;;-9.81;66.55;97352.81;4861513;29;20080;-66
2021/12/25 15:06:56;;;;;;;2.85;2.05;;;;;;;-9.88;66.97;97365.03;4861450;29;20050;-66
2021/12/25 15:09:24;;;;;;;2.53;1.83;;;;;;;-10.00;66.60;97361.03;4829607;29;20071;-67
2021/12/25 15:12:02;;;;;;;3.55;2.47;;;;;;;-9.95;66.91;97369.50;4864262;29;20139;-65
2021/12/25 15:14:32;;;;;;;4.65;3.17;;;;;;;-9.96;65.85;97372.13;4863925;29;20079;-66
2021/12/25 15:17:00;;;;;;;3.55;2.15;;;;;;;-9.95;66.43;97373.81;4844959;29;20048;-66
2021/12/25 15:19:34;;;;;;;5.20;2.70;;;;;;;-10.12;65.99;97374.25;4861451;29;20065;-65
2021/12/25 15:22:07;;;;;;;3.03;1.90;;;;;;;-10.16;66.31;97380.38;4861970;29;20052;-66
2021/12/25 15:24:33;;;;;;;3.67;1.92;;;;;;;-10.01;65.69;97400.59;4862415;29;20117;-65
2021/12/25 15:27:03;;;;;;;2.15;1.60;;;;;;;-10.14;65.55;97409.50;4861054;29;20036;-65
2021/12/25 15:29:59;;;;;;;1.92;1.17;;;;;;;-10.13;65.38;97405.19;4845076;29;20056;-66
2021/12/25 15:32:34;;;;;;;3.53;2.50;;;;;;;-10.29;65.34;97412.53;4844490;29;20411;-66
2021/12/25 15:35:01;;;;;;;4.40;2.08;;;;;;;-10.16;65.91;97395.84;4862872;29;20052;-65
2021/12/25 15:37:36;;;;;;;3.28;2.35;;;;;;;-10.11;65.33;97424.03;4860682;29;20108;-69
2021/12/25 15:40:08;;;;;;;2.97;1.80;;;;;;;-10.15;66.22;97425.84;4863188;29;20071;-66
2021/12/25 15:42:35;;;;;;;1.83;1.55;;;;;;;-10.19;65.71;97428.59;4864300;29;20044;-68
2021/12/25 15:45:00;;;;;;;4.60;1.77;;;;;;;-10.24;66.25;97422.69;4862473;29;20716;-67
2021/12/25 15:47:26;;;;;;;4.82;2.28;;;;;;;-10.33;66.44;97436.66;4860948;29;20048;-68
2021/12/25 15:49:51;;;;;;;4.05;2.67;;;;;;;-10.32;66.44;97430.63;4860376;29;20095;-67
2021/12/25 15:52:19;;;;;;;1.70;1.27;;;;;;;-10.29;66.71;97427.97;4860398;29;20572;-71
2021/12/25 15:54:44;;;;;;;2.35;1.92;;;;;;;-10.27;66.57;97433.94;4860245;29;20483;-63
2021/12/25 15:57:12;;;;;;;2.88;2.17;;;;;;;-10.40;66.02;97442.84;4860788;29;20483;-73
2021/12/25 15:59:38;;;;;;;3.83;2.17;;;;;;;-10.35;66.31;97446.97;4844896;29;20056;-73
2021/12/25 16:02:07;;;;;;;6.70;2.50;;;;;;;-10.36;66.45;97450.44;4861504;29;20048;-73
2021/12/25 16:04:32;;;;;;;7.38;2.42;;;;;;;-10.45;66.38;97449.81;4861416;29;20487;-68
2021/12/25 16:06:58;;;;;;;9.15;4.28;;;;;;;-10.53;66.05;97452.56;4861186;29;20385;-71
2021/12/25 16:09:23;;;;;;;4.78;2.95;;;;;;;-10.54;65.61;97463.75;4844285;29;20044;-70
2021/12/25 16:11:51;;;;;;;3.42;1.98;;;;;;;-10.47;65.44;97477.31;4861092;29;20066;-70
2021/12/25 16:14:19;;;;;;;3.28;2.33;;;;;;;-10.59;64.88;97457.84;4860857;29;20048;-72
2021/12/25 16:16:53;;;;;;;2.88;1.52;;;;;;;-10.49;65.25;97484.22;4860323;29;20052;-70
2021/12/25 16:19:17;;;;;;;2.28;1.35;;;;;;;-10.38;65.25;97483.09;4859951;29;20052;-70
2021/12/25 16:21:44;;;;;;;3.60;2.30;;;;;;;-10.41;65.00;97485.75;4860240;29;20048;-69
2021/12/25 16:24:09;;;;;;;2.42;1.80;;;;;;;-10.35;65.10;97489.91;4860021;29;20060;-69
2021/12/25 16:26:37;;;;;;;6.15;2.10;;;;;;;-10.27;65.56;97486.28;4860585;29;20052;-70
2021/12/25 16:29:03;;;;;;;7.28;2.38;;;;;;;-10.50;65.73;97498.84;4861749;29;20067;-66
2021/12/25 16:31:27;;;;;;;3.47;2.28;;;;;;;-10.59;65.92;97498.19;4847527;29;20052;-66
2021/12/25 16:33:54;;;;;;;5.28;2.90;;;;;;;-10.44;66.35;97510.72;4863531;29;20044;-65
2021/12/25 16:36:19;;;;;;;3.47;2.35;;;;;;;-10.39;65.97;97512.34;4863787;29;20044;-67
2021/12/25 16:38:46;;;;;;;3.33;1.90;;;;;;;-10.37;65.95;97513.13;4863578;29;20060;-65
2021/12/25 16:41:11;;;;;;;3.08;1.95;;;;;;;-10.29;65.63;97524.13;4864853;29;20499;-64
2021/12/25 16:43:37;;;;;;;5.60;1.52;;;;;;;-10.18;65.04;97531.59;4865276;29;20570;-65
2021/12/25 16:46:06;;;;;;;3.25;2.25;;;;;;;-10.37;64.78;97546.59;4871609;29;20041;-64
2021/12/25 16:48:56;;;;;;;3.42;1.98;;;;;;;-10.39;64.72;97537.25;4872547;29;20055;-62
2021/12/25 16:51:21;;;;;;;3.75;2.40;;;;;;;-10.41;65.09;97539.84;4867985;29;20044;-65
2021/12/25 16:53:46;;;;;;;3.60;2.58;;;;;;;-10.37;65.38;97538.03;4864901;29;20437;-64
2021/12/25 16:56:29;;;;;;;3.60;1.53;;;;;;;-10.35;65.23;97564.59;4865239;29;20116;-64
2021/12/25 16:58:55;;;;;;;2.80;1.98;;;;;;;-10.36;64.49;97571.47;4863956;29;20044;-66
2021/12/25 17:01:20;;;;;;;3.97;2.85;;;;;;;-10.41;64.67;97573.31;4847604;29;20063;-66
2021/12/25 17:03:45;;;;;;;3.22;2.35;;;;;;;-10.35;64.49;97585.22;4863748;29;20136;-67
2021/12/25 17:06:11;;;;;;;6.38;3.42;;;;;;;-10.25;64.58;97578.97;4863312;29;20230;-66
2021/12/25 17:08:36;;;;;;;4.20;2.75;;;;;;;-10.20;64.35;97584.88;4863375;29;20131;-65
2021/12/25 17:11:00;;;;;;;5.50;2.80;;;;;;;-10.29;63.95;97595.38;4863319;29;20127;-66
2021/12/25 17:13:25;;;;;;;3.60;2.83;;;;;;;-10.38;63.46;97591.25;4863482;29;20123;-66
2021/12/25 17:15:52;;;;;;;5.88;3.10;;;;;;;-10.39;63.33;97588.75;4863658;29;20052;-67
2021/12/25 17:18:18;;;;;;;4.32;2.42;;;;;;;-10.32;62.87;97601.44;4863351;29;20546;-66
2021/12/25 17:20:49;;;;;;;4.10;2.47;;;;;;;-10.44;62.82;97606.00;4863045;29;20055;-66
2021/12/25 17:23:18;;;;;;;4.30;2.50;;;;;;;-10.54;63.11;97610.50;4863023;29;20068;-63
2021/12/25 17:26:08;;;;;;;3.83;2.88;;;;;;;-10.59;64.14;97614.03;4862950;29;20069;-66
2021/12/25 17:28:35;;;;;;;4.43;2.50;;;;;;;-10.42;63.00;97609.41;4862667;29;20041;-64
2021/12/25 17:31:01;;;;;;;4.43;2.38;;;;;;;-10.40;63.27;97613.66;4845933;29;20554;-65
2021/12/25 17:33:28;;;;;;;6.50;3.38;;;;;;;-10.41;63.82;97611.94;4846278;29;20040;-66
2021/12/25 17:35:56;;;;;;;2.90;2.47;;;;;;;-10.31;63.43;97625.47;4845146;29;20047;-65
2021/12/25 17:38:32;;;;;;;4.03;2.30;;;;;;;-10.35;64.16;97634.13;4859779;29;20092;-65
2021/12/25 17:41:03;;;;;;;1.48;1.33;;;;;;;-10.22;63.96;97625.28;4861797;29;20048;-66
2021/12/25 17:43:36;;;;;;;6.03;3.53;;;;;;;-10.32;63.73;97636.66;4845841;29;20040;-65
2021/12/25 17:46:03;;;;;;;4.68;2.85;;;;;;;-10.34;63.06;97626.38;4862673;29;20407;-63
2021/12/25 17:48:31;;;;;;;4.85;2.58;;;;;;;-10.34;63.61;97638.41;4861682;29;20048;-65
2021/12/25 17:51:00;;;;;;;2.83;2.20;;;;;;;-10.37;63.34;97638.47;4845420;29;20074;-66
2021/12/25 17:53:26;;;;;;;4.25;2.58;;;;;;;-10.24;63.85;97639.91;4858630;29;20040;-66
2021/12/25 17:56:16;;;;;;;4.85;2.30;;;;;;;-10.13;63.92;97643.06;4862021;29;20072;-65
2021/12/25 17:58:44;;;;;;;6.20;2.72;;;;;;;-10.28;63.98;97661.47;4859009;29;20597;-64
2021/12/25 18:01:10;;;;;;;3.63;2.83;;;;;;;-10.31;63.80;97653.81;4845980;29;20051;-67
2021/12/25 18:04:03;;;;;;;2.47;1.27;;;;;;;-10.09;64.57;97654.16;4862451;29;20045;-66
2021/12/25 18:06:31;;;;;;;4.72;2.97;;;;;;;-10.21;64.08;97659.63;4863520;29;20108;-73
2021/12/25 18:08:58;;;;;;;3.72;2.20;;;;;;;-10.19;64.12;97670.75;4846066;29;20160;-68
2021/12/25 18:11:25;;;;;;;4.10;2.63;;;;;;;-10.30;64.75;97665.81;4863334;29;20750;-67
2021/12/25 18:13:53;;;;;;;4.43;2.65;;;;;;;-10.27;64.35;97673.47;4862834;29;20416;-66
2021/12/25 18:16:25;;;;;;;4.15;2.47;;;;;;;-10.21;64.22;97672.50;4862004;29;20419;-68
2021/12/25 18:18:53;;;;;;;4.13;2.50;;;;;;;-10.32;64.34;97673.56;4862077;29;20066;-66
2021/12/25 18:21:19;;;;;;;3.92;3.03;;;;;;;-10.35;63.99;97675.34;4845748;29;20049;-66
2021/12/25 18:23:46;;;;;;;4.45;2.67;;;;;;;-10.39;64.00;97679.72;4845622;29;20056;-65
2021/12/25 18:26:16;;;;;;;3.72;2.47;;;;;;;-10.34;63.75;97687.34;4843479;29;20489;-67
2021/12/25 18:28:45;;;;;;;4.35;2.67;;;;;;;-10.40;63.61;97687.50;4843552;29;20055;-66
2021/12/25 18:31:13;;;;;;;5.88;2.95;;;;;;;-10.55;63.99;97698.91;4842615;29;20055;-68
2021/12/25 18:33:43;;;;;;;3.95;2.90;;;;;;;-10.47;63.81;97691.88;4843795;29;20053;-66
2021/12/25 18:36:11;;;;;;;7.28;2.92;;;;;;;-10.37;63.58;97695.13;4841487;29;20049;-69
2021/12/25 18:38:41;;;;;;;3.72;2.40;;;;;;;-10.33;63.62;97695.06;4825224;29;20049;-64
2021/12/25 18:41:07;;;;;;;3.38;2.35;;;;;;;-10.36;63.66;97699.41;4825015;29;20454;-65
2021/12/25 18:43:33;;;;;;;4.10;2.90;;;;;;;-10.66;63.64;97706.00;4825370;29;20041;-65
2021/12/25 18:46:03;;;;;;;6.80;2.65;;;;;;;-10.53;63.90;97704.03;4825235;29;20661;-70
2021/12/25 18:48:29;;;;;;;4.35;2.70;;;;;;;-10.41;63.89;97698.66;4825287;29;20069;-70
2021/12/25 18:50:55;;;;;;;6.93;2.92;;;;;;;-10.47;64.31;97714.22;4824706;29;20144;-73
2021/12/25 18:53:20;;;;;;;3.70;2.13;;;;;;;-10.45;63.63;97712.47;4822925;29;20076;-69
2021/12/25 18:55:45;;;;;;;4.20;2.42;;;;;;;-10.41;64.38;97709.81;4824640;29;20049;-70
2021/12/25 18:58:11;;;;;;;4.65;3.10;;;;;;;-10.60;63.66;97708.44;4824834;29;20060;-72
2021/12/25 19:00:41;;;;;;;4.25;2.78;;;;;;;-10.67;63.86;97715.44;4808879;29;20064;-71
2021/12/25 19:03:07;;;;;;;5.63;3.08;;;;;;;-10.61;63.97;97716.22;4824409;29;20041;-72
2021/12/25 19:05:32;;;;;;;5.55;3.28;;;;;;;-10.58;64.33;97729.00;4823966;29;20064;-64
2021/12/25 19:07:59;;;;;;;3.53;2.22;;;;;;;-10.46;64.55;97710.75;4825127;29;20052;-70
2021/12/25 19:10:25;;;;;;;5.88;3.78;;;;;;;-10.58;64.63;97729.00;4824138;29;20052;-71
2021/12/25 19:12:51;;;;;;;6.53;4.00;;;;;;;-10.68;64.54;97716.31;4822999;29;20101;-67
2021/12/25 19:15:18;;;;;;;4.32;2.72;;;;;;;-10.58;65.01;97723.88;4824447;29;20049;-64
2021/12/25 19:17:45;;;;;;;7.22;3.72;;;;;;;-10.53;65.28;97730.66;4824152;29;20156;-65
2021/12/25 19:20:14;;;;;;;7.30;3.25;;;;;;;-10.58;65.03;97736.75;4822983;29;20076;-67
2021/12/25 19:23:04;;;;;;;6.97;3.67;;;;;;;-10.54;64.27;97730.66;4824009;29;20587;-67